Johnstown, Nebraska
Current Conditions -  °F | °C
As of 1:15 AM on Sunday 26 Oct 2014 (Local Time) from KANW Reporting Station
Clear Clear  
Wind Chill: 45°   Ceiling: Unl
Heat Index: 49°   Visibility: 10mi
Dew Point: 37°   Wind: 12mph
Humidity: 61%   Direction: 140°SE
Pressure: 29.92"   Gusts: NA
Location:  42.57°N, 100.06°W
Report Text: KANW 260615Z AUTO 14010KT 10SM CLR 10/03 A2992 RMK AO2 T00970026
Loading
Personal Weather Stations






























Interactive Weather Map
Tropical Storm Tracking
New forecast layout! Learn more

10-Day Weather Forecast

Advertisements
Track Severe Weather on mobile